Latest Weather Observations for Port Hedland

IDW60801

Issued at 1:39 pm WST Tuesday 26 September 2017 (issued every 30 minutes, with the page automatically refreshed every 10 minutes)

About weather observations | Map of weather stations | Latest weather observations for WA | Other Formats
Station Details ID: 004032 Name: PORT HEDLAND AIRPORT Lat: -20.37 Lon: 118.63 Height: 6.4 m
Data from the previous 72 hours. | See also: Recent months at Port Hedland
Date/Time
WST
Temp
°C
App
Temp
°C
Dew
Point
°C
Rel
Hum
%
Delta-T
°C
Wind Press
QNH
hPa
Press
MSL
hPa
Rain since
9am
mm
Dir  Spd
km/h
Gust
km/h
Spd
kts
Gust
kts
26/01:30pm 28.4 22.1 12.3 37 9.4 NW 37 50 20 27 1011.7 - 0.0
26/01:00pm 28.4 22.1 12.3 37 9.4 NW 37 46 20 25 1012.1 - 0.0
26/12:30pm 28.0 21.7 12.4 38 9.1 NW 37 48 20 26 1012.5 - 0.0
26/12:00pm 28.4 22.9 11.9 36 9.5 WNW 32 43 17 23 1012.9 1012.9 0.0
26/11:30am 28.1 23.2 9.9 32 10.2 W 26 37 14 20 1013.5 - 0.0
26/11:00am 27.3 22.7 9.6 33 9.8 W 24 37 13 20 1013.9 - 0.0
26/10:30am 27.2 23.2 10.4 35 9.4 WSW 22 35 12 19 1014.2 - 0.0
26/10:00am 25.5 21.4 10.1 38 8.5 WSW 22 39 12 21 1014.7 - 0.0
26/09:30am 25.6 20.7 9.8 37 8.7 W 26 35 14 19 1015.0 - 0.0
26/09:00am 25.5 21.3 9.7 37 8.7 WSW 22 33 12 18 1015.1 1015.1 0.0
26/08:30am 24.1 19.5 9.7 40 7.9 WSW 24 37 13 20 1015.1 - 0.0
26/08:00am 23.2 19.3 9.6 42 7.4 SW 20 26 11 14 1015.0 - 0.0
26/07:30am 21.6 18.3 11.0 51 5.8 SW 19 24 10 13 1014.6 - 0.0
26/07:00am 20.3 17.8 11.0 55 5.1 SW 15 19 8 10 1014.2 - 0.0
26/06:30am 18.5 16.8 11.1 62 4.0 SW 11 15 6 8 1013.8 - 0.0
26/06:00am 18.3 15.4 10.9 62 4.0 SW 17 20 9 11 1013.4 1013.4 0.0
26/05:30am 19.0 15.7 10.8 59 4.4 SW 19 22 10 12 1013.0 - 0.0
26/05:00am 19.2 15.7 11.0 59 4.5 WSW 20 26 11 14 1012.8 - 0.0
26/04:30am 19.2 15.8 10.7 58 4.6 WSW 19 22 10 12 1012.4 - 0.0
26/04:00am 19.5 16.2 10.8 57 4.7 WSW 19 24 10 13 1012.2 - 0.0
26/03:30am 19.8 16.5 11.0 57 4.8 WSW 19 24 10 13 1012.0 - 0.0
26/03:00am 20.3 16.5 11.0 55 5.1 WSW 22 28 12 15 1011.9 1011.9 0.0
26/02:30am 20.6 16.3 10.7 53 5.4 WSW 24 32 13 17 1011.9 - 0.0
26/02:00am 20.8 16.6 11.2 54 5.3 W 24 33 13 18 1011.9 - 0.0
26/01:30am 20.9 17.2 12.8 60 4.6 W 24 32 13 17 1011.9 - 0.0
26/01:00am 21.0 18.0 14.9 68 3.6 W 24 33 13 18 1011.8 - 0.0
26/12:30am 21.2 19.2 16.4 74 2.9 W 22 32 12 17 1011.9 - 0.0
26/12:00am 21.5 19.5 16.5 73 3.0 W 22 30 12 16 1011.9 1011.9 0.0
 
Date/Time
WST
Temp
°C
App
Temp
°C
Dew
Point
°C
Rel
Hum
%
Delta-T
°C
Wind Press
QNH
hPa
Press
MSL
hPa
Rain since
9am
mm
Dir  Spd
km/h
Gust
km/h
Spd
kts
Gust
kts
25/11:30pm 21.8 19.5 16.7 73 3.1 W 24 30 13 16 1012.0 - 0.0
25/11:00pm 21.8 20.0 17.0 74 2.9 W 22 32 12 17 1012.1 - 0.0
25/10:30pm 21.8 19.5 16.7 73 3.1 W 24 32 13 17 1012.1 - 0.0
25/10:00pm 22.0 20.2 16.9 73 3.1 W 22 30 12 16 1012.0 - 0.0
25/09:30pm 22.1 19.6 16.1 69 3.6 W 24 30 13 16 1011.9 - 0.0
25/09:00pm 22.2 20.4 16.0 68 3.7 WNW 20 28 11 15 1011.9 1011.9 0.0
25/08:30pm 22.5 20.4 16.1 67 3.9 WNW 22 30 12 16 1011.6 - 0.0
25/08:00pm 22.6 20.3 15.7 65 4.1 WNW 22 30 12 16 1011.2 - 0.0
25/07:30pm 22.8 20.4 15.4 63 4.4 W 22 28 12 15 1011.0 - 0.0
25/07:00pm 22.9 20.6 15.7 64 4.3 WNW 22 30 12 16 1010.6 - 0.0
25/06:30pm 23.1 20.2 15.2 61 4.7 WNW 24 32 13 17 1010.2 - 0.0
25/06:00pm 23.4 20.1 14.9 59 5.1 WNW 26 39 14 21 1009.8 1009.8 0.0
25/05:30pm 24.3 20.2 15.0 56 5.6 W 30 39 16 21 1009.7 - 0.0
25/05:00pm 24.7 19.7 15.1 55 5.8 WNW 35 43 19 23 1009.3 - 0.0
25/04:30pm 25.9 20.9 14.1 48 7.0 WNW 33 43 18 23 1009.2 - 0.0
25/04:00pm 26.3 20.9 13.8 46 7.4 WNW 35 43 19 23 1009.2 - 0.0
25/03:30pm 26.2 20.3 13.7 46 7.4 WNW 37 44 20 24 1009.1 - 0.0
25/03:00pm 27.0 20.4 12.6 41 8.4 WNW 39 52 21 28 1009.4 1009.4 0.0
25/02:30pm 28.0 21.2 12.0 37 9.3 WNW 39 50 21 27 1009.5 - 0.0
25/02:00pm 27.7 22.0 12.9 40 8.7 WNW 35 48 19 26 1009.8 - 0.0
25/01:30pm 28.5 23.6 12.4 37 9.4 W 30 50 16 27 1010.0 - 0.0
25/01:15pm 29.3 23.6 11.8 34 10.2 WNW 33 63 18 34 1010.0 - 0.0
25/01:00pm 28.3 21.8 11.8 36 9.5 WNW 37 48 20 26 1010.3 - 0.0
25/12:30pm 27.5 21.1 11.9 38 9.0 WNW 37 46 20 25 1011.0 - 0.0
25/12:00pm 28.0 21.6 12.0 37 9.3 WNW 37 48 20 26 1011.5 1011.5 0.0
25/11:30am 27.5 21.3 11.5 37 9.2 WNW 35 44 19 24 1012.1 - 0.0
25/11:00am 27.3 21.5 10.9 36 9.3 W 32 44 17 24 1012.5 - 0.0
25/10:30am 27.1 21.3 9.5 33 9.7 W 30 43 16 23 1012.9 - 0.0
25/10:00am 26.7 22.2 10.0 35 9.3 WSW 24 43 13 23 1013.2 - 0.0
25/09:30am 25.9 20.3 10.1 37 8.8 WSW 30 46 16 25 1013.5 - 0.0
25/09:24am 25.6 20.4 10.2 38 8.5 WSW 28 46 15 25 1013.5 - 0.0
25/09:00am 24.8 20.9 10.7 41 7.9 WSW 22 35 12 19 1013.6 1013.6 0.0
25/08:30am 23.9 19.3 10.9 44 7.2 SW 26 33 14 18 1013.6 - 0.0
25/08:00am 23.1 18.6 11.5 48 6.5 SW 26 35 14 19 1013.5 - 0.0
25/07:30am 21.9 17.8 11.6 52 5.7 SW 24 30 13 16 1013.5 - 0.0
25/07:00am 20.4 17.6 12.6 61 4.4 SW 19 22 10 12 1013.2 - 0.0
25/06:30am 19.1 16.7 12.6 66 3.6 SW 17 22 9 12 1012.8 - 0.0
25/06:00am 18.5 15.7 12.7 69 3.2 WSW 19 24 10 13 1012.7 1012.7 0.0
25/05:30am 18.9 16.2 12.9 68 3.4 SW 19 24 10 13 1012.4 - 0.0
25/05:00am 19.0 16.3 13.0 68 3.4 WSW 19 26 10 14 1012.0 - 0.0
25/04:30am 19.5 15.9 13.2 67 3.6 WSW 24 30 13 16 1011.7 - 0.0
25/04:00am 19.9 15.9 13.1 65 3.9 WSW 26 33 14 18 1011.3 - 0.0
25/03:30am 19.6 16.5 13.3 67 3.6 WSW 22 28 12 15 1011.3 - 0.0
25/03:00am 19.7 16.5 14.3 71 3.1 WSW 24 28 13 15 1011.2 1011.2 0.0
25/02:30am 19.8 16.8 14.8 73 2.9 WSW 24 30 13 16 1011.3 - 0.0
25/02:00am 20.0 17.4 15.0 73 2.9 WSW 22 28 12 15 1011.2 - 0.0
25/01:30am 20.4 17.7 15.6 74 2.9 W 24 30 13 16 1011.2 - 0.0
25/01:00am 20.1 18.7 15.5 75 2.7 W 17 20 9 11 1011.3 - 0.0
25/12:30am 20.5 18.5 15.5 73 3.0 W 20 26 11 14 1011.2 - 0.0
25/12:00am 20.9 18.4 15.2 70 3.4 W 22 28 12 15 1011.3 1011.3 0.0
 
Date/Time
WST
Temp
°C
App
Temp
°C
Dew
Point
°C
Rel
Hum
%
Delta-T
°C
Wind Press
QNH
hPa
Press
MSL
hPa
Rain since
9am
mm
Dir  Spd
km/h
Gust
km/h
Spd
kts
Gust
kts
24/11:30pm 21.2 18.1 15.5 70 3.4 W 26 32 14 17 1011.5 - 0.0
24/11:00pm 21.2 18.5 15.5 70 3.4 W 24 33 13 18 1011.5 - 0.0
24/10:30pm 21.5 18.3 15.3 68 3.7 W 26 32 14 17 1011.5 - 0.0
24/10:00pm 21.8 18.3 15.4 67 3.8 W 28 35 15 19 1011.8 - 0.0
24/09:30pm 21.7 18.7 15.8 69 3.5 W 26 30 14 16 1011.8 - 0.0
24/09:00pm 22.0 19.2 16.3 70 3.5 W 26 35 14 19 1011.7 1011.7 0.0
24/08:30pm 22.0 18.8 16.3 70 3.4 WNW 28 35 15 19 1011.4 - 0.0
24/08:00pm 22.2 19.6 16.0 68 3.7 W 24 32 13 17 1011.1 - 0.0
24/07:30pm 22.5 18.8 16.1 67 3.9 WNW 30 39 16 21 1010.7 - 0.0
24/07:00pm 22.7 18.9 15.8 65 4.2 WNW 30 39 16 21 1010.5 - 0.0
24/06:30pm 22.8 19.3 15.6 64 4.3 WNW 28 39 15 21 1010.1 - 0.0
24/06:00pm 23.2 18.6 15.0 60 4.9 WNW 33 43 18 23 1009.8 1009.8 0.0
24/05:30pm 23.9 19.0 15.4 59 5.1 WNW 35 50 19 27 1009.6 - 0.0
24/05:25pm 24.3 19.8 15.5 58 5.3 WNW 33 52 18 28 1009.6 - 0.0
24/05:00pm 24.4 18.7 15.1 56 5.6 WNW 39 50 21 27 1009.4 - 0.0
24/04:30pm 25.3 19.2 15.3 54 6.0 WNW 41 52 22 28 1009.3 - 0.0
24/04:00pm 25.7 18.9 14.2 49 6.8 WNW 43 52 23 28 1009.1 - 0.0
24/03:30pm 26.0 19.1 12.8 44 7.7 WNW 41 52 22 28 1009.2 - 0.0
24/03:00pm 27.0 19.6 12.6 41 8.4 WNW 43 54 23 29 1009.4 1009.4 0.0
24/02:30pm 27.7 20.7 12.5 39 8.9 NW 41 57 22 31 1009.4 - 0.0
24/02:00pm 27.2 19.4 11.7 38 8.9 WNW 44 56 24 30 1009.7 - 0.0
24/01:30pm 27.5 19.7 11.9 38 9.0 WNW 44 59 24 32 1010.0 - 0.0
24/01:00pm 27.0 19.4 11.9 39 8.7 NW 43 52 23 28 1010.4 - 0.0
24/12:30pm 27.4 19.9 12.2 39 8.8 NW 43 50 23 27 1010.8 - 0.0
24/12:00pm 27.3 20.7 12.5 40 8.6 NW 39 46 21 25 1011.3 1011.3 0.0
24/11:30am 27.1 21.5 11.6 38 8.9 WNW 32 44 17 24 1011.9 - 0.0
24/11:14am 27.2 22.3 11.2 36 9.1 W 28 48 15 26 1012.1 - 0.0
24/11:00am 26.5 22.3 9.8 35 9.2 W 22 39 12 21 1012.3 - 0.0
24/10:30am 26.4 22.0 8.8 33 9.6 W 22 39 12 21 1012.8 - 0.0
24/10:00am 26.8 22.2 9.6 34 9.5 W 24 39 13 21 1013.1 - 0.0
24/09:30am 25.7 20.1 8.7 34 9.2 W 28 35 15 19 1013.5 - 0.0
24/09:00am 25.4 19.6 9.3 36 8.8 W 30 37 16 20 1013.5 1013.5 0.0
24/08:30am 24.2 18.4 9.4 39 8.0 WSW 30 37 16 20 1013.5 - 0.0
24/08:00am 23.5 18.6 9.9 42 7.4 W 26 35 14 19 1013.4 - 0.0
24/07:30am 21.6 15.8 10.7 50 6.0 WSW 32 39 17 21 1013.1 - 0.0
24/07:00am 20.6 16.0 11.2 55 5.2 W 26 32 14 17 1013.0 - 0.0
24/06:30am 19.1 15.5 11.7 62 4.1 W 22 28 12 15 1012.7 - 0.0
24/06:00am 18.7 14.9 12.5 67 3.5 W 24 28 13 15 1012.5 1012.5 0.0
24/05:30am 18.5 15.8 13.4 72 2.9 W 20 26 11 14 1012.2 - 0.0
24/05:00am 18.8 15.9 13.9 73 2.8 W 22 30 12 16 1012.1 - 0.0
24/04:30am 18.0 15.8 14.3 79 2.1 W 19 22 10 12 1012.0 - 0.0
24/04:00am 18.1 16.3 14.4 79 2.1 W 17 20 9 11 1011.8 - 0.0
24/03:30am 18.9 17.2 14.6 76 2.5 W 17 20 9 11 1011.6 - 0.0
24/03:00am 18.7 17.0 14.8 78 2.3 W 17 20 9 11 1011.6 1011.6 0.0
24/02:30am 18.6 17.1 15.3 81 1.9 W 17 22 9 12 1011.7 - 0.0
24/02:00am 19.4 17.6 15.5 78 2.3 WSW 19 22 10 12 1011.9 - 0.0
24/01:30am 20.5 18.1 15.5 73 3.0 W 22 28 12 15 1012.1 - 0.0
24/01:00am 20.6 18.3 15.8 74 2.9 W 22 28 12 15 1012.3 - 0.0
24/12:30am 20.5 18.6 16.7 79 2.3 WSW 22 26 12 14 1012.4 - 0.0
24/12:00am 20.3 18.9 17.1 82 1.9 W 20 24 11 13 1012.5 1012.5 0.0
 
Date/Time
WST
Temp
°C
App
Temp
°C
Dew
Point
°C
Rel
Hum
%
Delta-T
°C
Wind Press
QNH
hPa
Press
MSL
hPa
Rain since
9am
mm
Dir  Spd
km/h
Gust
km/h
Spd
kts
Gust
kts
23/11:30pm 21.0 19.2 17.0 78 2.4 W 22 28 12 15 1012.5 - 0.0
23/11:00pm 21.8 20.2 17.4 76 2.7 W 22 30 12 16 1012.6 - 0.0
23/10:30pm 22.0 20.4 17.4 75 2.8 W 22 30 12 16 1012.7 - 0.0
23/10:00pm 22.1 20.8 17.2 74 3.0 W 20 28 11 15 1012.9 - 0.0
23/09:30pm 22.1 21.1 17.5 75 2.8 W 19 22 10 12 1013.1 - 0.0
23/09:00pm 22.4 21.6 18.0 76 2.7 WNW 19 22 10 12 1012.8 1012.8 0.0
23/08:30pm 22.6 21.9 18.2 76 2.8 WNW 19 22 10 12 1012.6 - 0.0
23/08:00pm 23.1 22.5 18.4 75 3.0 WNW 19 22 10 12 1012.5 - 0.0
23/07:30pm 23.3 22.5 18.4 74 3.1 WNW 20 22 11 12 1012.2 - 0.0
23/07:00pm 23.6 22.7 17.8 70 3.6 WNW 19 20 10 11 1012.0 - 0.0
23/06:30pm 24.1 23.0 17.4 66 4.2 WNW 19 20 10 11 1011.7 - 0.0
23/06:00pm 26.0 23.6 14.5 49 6.9 WNW 20 26 11 14 1011.5 1011.5 0.0
23/05:30pm 29.1 23.1 7.1 25 11.8 W 28 39 15 21 1011.4 - 0.0
23/05:00pm 30.6 22.0 0.1 14 14.6 W 35 43 19 23 1011.2 - 0.0
23/04:30pm 31.4 23.0 -1.4 12 15.4 W 33 43 18 23 1011.2 - 0.0
23/04:00pm 32.4 24.2 0.5 13 15.6 W 33 46 18 25 1011.1 - 0.0
23/03:30pm 32.4 24.2 0.5 13 15.6 WNW 33 41 18 22 1011.1 - 0.0
23/03:00pm 33.0 24.3 -0.2 12 16.1 WNW 35 44 19 24 1011.3 1011.3 0.0
23/02:30pm 32.6 24.7 4.4 17 14.7 WNW 35 46 19 25 1011.6 - 0.0
23/02:00pm 32.2 24.9 7.1 21 13.7 WNW 35 46 19 25 1011.9 - 0.0

Other Formats:

Comma delimited format used in spreadsheet applications
http://www.bom.gov.au/fwo/IDW60801/IDW60801.94312.axf

JavaScript Object Notation format (JSON) in row-major order
http://www.bom.gov.au/fwo/IDW60801/IDW60801.94312.json